Time,TemperatureF,DewpointF,PressureIn,WindDirection,WindDirectionDegrees,WindSpeedMPH,WindSpeedGustMPH,Humidity,HourlyPrecipIn,Conditions,Clouds,dailyrainin,SoftwareType,DateUTC
2013-09-14 00:12:00,62.0,47.0,-100.00,NE,35,5.0,7.0,59,0.00,,,-99.99,,2013-09-14 07:12:00,
2013-09-14 00:42:00,56.0,47.0,-100.00,SSE,162,0.0,3.0,71,0.00,,,-99.99,,2013-09-14 07:42:00,
2013-09-14 00:52:00,57.0,46.0,-100.00,SE,144,1.0,3.0,67,0.00,,,-99.99,,2013-09-14 07:52:00,
2013-09-14 01:12:00,57.0,47.0,-100.00,SE,127,0.0,2.0,68,0.00,,,-99.99,,2013-09-14 08:12:00,
2013-09-14 01:21:00,57.0,47.0,-100.00,SE,127,0.0,2.0,68,0.00,,,-99.99,,2013-09-14 08:21:00,
2013-09-14 01:42:00,55.0,46.0,-100.00,SE,140,0.0,3.0,71,0.00,,,-99.99,,2013-09-14 08:42:00,
2013-09-14 02:03:00,53.0,46.0,-100.00,North,-999,0.0,0.0,77,0.00,,,-99.99,,2013-09-14 09:03:00,
2013-09-14 02:11:00,53.0,45.0,-100.00,East,89,1.0,2.0,74,0.00,,,-99.99,,2013-09-14 09:11:00,
2013-09-14 02:21:00,55.0,46.0,-100.00,East,97,0.0,3.0,72,0.00,,,-99.99,,2013-09-14 09:21:00,
2013-09-14 02:43:00,53.0,46.0,-100.00,North,-999,0.0,0.0,77,0.00,,,-99.99,,2013-09-14 09:43:00,
2013-09-14 02:53:00,53.0,46.0,-100.00,North,-999,0.0,0.0,77,0.00,,,-99.99,,2013-09-14 09:53:00,
2013-09-14 03:42:00,53.0,47.0,-100.00,SSW,208,2.0,3.0,79,0.00,,,-99.99,,2013-09-14 10:42:00,
2013-09-14 03:52:00,53.0,47.0,-100.00,SE,131,1.0,3.0,79,0.00,,,-99.99,,2013-09-14 10:52:00,
2013-09-14 04:02:00,53.0,47.0,-100.00,SE,131,1.0,3.0,79,0.00,,,-99.99,,2013-09-14 11:02:00,
2013-09-14 04:22:00,54.0,43.0,-100.00,ENE,65,5.0,7.0,65,0.00,,,-99.99,,2013-09-14 11:22:00,
2013-09-14 04:42:00,53.0,42.0,-100.00,ENE,78,3.0,5.0,67,0.00,,,-99.99,,2013-09-14 11:42:00,
2013-09-14 04:52:00,53.0,42.0,-100.00,ENE,78,3.0,5.0,67,0.00,,,-99.99,,2013-09-14 11:52:00,
2013-09-14 05:01:00,53.0,42.0,-100.00,ENE,78,3.0,5.0,67,0.00,,,-99.99,,2013-09-14 12:01:00,
2013-09-14 06:12:00,50.0,44.0,-100.00,NNE,18,0.0,2.0,81,0.00,,,-99.99,,2013-09-14 13:12:00,
2013-09-14 06:42:00,51.0,45.0,-100.00,SSE,158,0.0,1.0,79,0.00,,,-99.99,,2013-09-14 13:42:00,
2013-09-14 06:52:00,51.0,45.0,-100.00,SSE,158,0.0,1.0,79,0.00,,,-99.99,,2013-09-14 13:52:00,
2013-09-14 07:52:00,48.0,41.0,-100.00,ESE,117,3.0,5.0,77,0.00,,,-99.99,,2013-09-14 14:52:00,
2013-09-14 08:02:00,48.0,41.0,-100.00,ESE,117,3.0,5.0,77,0.00,,,-99.99,,2013-09-14 15:02:00,
2013-09-14 08:22:00,50.0,45.0,-100.00,SW,219,1.0,3.0,84,0.00,,,-99.99,,2013-09-14 15:22:00,
2013-09-14 08:33:00,50.0,45.0,-100.00,SW,219,1.0,3.0,84,0.00,,,-99.99,,2013-09-14 15:33:00,
2013-09-14 08:43:00,50.0,45.0,-100.00,SW,219,1.0,3.0,84,0.00,,,-99.99,,2013-09-14 15:43:00,
2013-09-14 10:11:00,67.0,46.0,-100.00,ESE,109,1.0,3.0,46,0.00,,,-99.99,,2013-09-14 17:11:00,
2013-09-14 10:23:00,69.0,44.0,-100.00,NE,38,1.0,4.0,41,0.00,,,-99.99,,2013-09-14 17:23:00,
2013-09-14 10:43:00,70.0,46.0,-100.00,NNW,330,2.0,4.0,43,0.00,,,-99.99,,2013-09-14 17:43:00,
2013-09-14 10:54:00,71.0,44.0,-100.00,West,272,1.0,4.0,38,0.00,,,-99.99,,2013-09-14 17:54:00,
2013-09-14 11:02:00,71.0,44.0,-100.00,West,272,1.0,4.0,38,0.00,,,-99.99,,2013-09-14 18:02:00,
2013-09-14 11:21:00,74.0,44.0,-100.00,West,263,1.0,5.0,34,0.00,,,-99.99,,2013-09-14 18:21:00,
2013-09-14 11:32:00,74.0,44.0,-100.00,West,263,1.0,5.0,34,0.00,,,-99.99,,2013-09-14 18:32:00,
2013-09-14 11:52:00,77.0,42.0,-100.00,NW,320,2.0,5.0,29,0.00,,,-99.99,,2013-09-14 18:52:00,
2013-09-14 12:02:00,77.0,42.0,-100.00,NW,320,2.0,5.0,29,0.00,,,-99.99,,2013-09-14 19:02:00,
2013-09-14 12:22:00,81.0,42.0,-100.00,NNW,329,2.0,6.0,25,0.00,,,-99.99,,2013-09-14 19:22:00,
2013-09-14 12:42:00,82.0,42.0,-100.00,NW,313,3.0,7.0,24,0.00,,,-99.99,,2013-09-14 19:42:00,
2013-09-14 13:12:00,83.0,40.0,-100.00,North,353,3.0,9.0,22,0.00,,,-99.99,,2013-09-14 20:12:00,
2013-09-14 13:22:00,82.0,38.0,-100.00,WNW,298,4.0,8.0,21,0.00,,,-99.99,,2013-09-14 20:22:00,
2013-09-14 13:42:00,86.0,36.0,-100.00,North,1,2.0,6.0,17,0.00,,,-99.99,,2013-09-14 20:42:00,
2013-09-14 13:52:00,84.0,36.0,-100.00,NNW,332,3.0,7.0,18,0.00,,,-99.99,,2013-09-14 20:52:00,
2013-09-14 14:11:00,86.0,36.0,-100.00,ENE,69,1.0,5.0,17,0.00,,,-99.99,,2013-09-14 21:11:00,
2013-09-14 14:22:00,85.0,37.0,-100.00,North,0,2.0,6.0,18,0.00,,,-99.99,,2013-09-14 21:22:00,
2013-09-14 14:23:00,85.0,37.0,-100.00,North,6,4.0,10.0,18,0.00,,,-99.99,,2013-09-14 21:23:00,
2013-09-14 14:44:00,85.0,38.0,-100.00,North,4,5.0,10.0,19,0.00,,,-99.99,,2013-09-14 21:44:00,
2013-09-14 15:13:00,85.0,37.0,-100.00,North,6,4.0,10.0,18,0.00,,,-99.99,,2013-09-14 22:13:00,
2013-09-14 15:42:00,86.0,38.0,-100.00,WNW,295,3.0,8.0,18,0.00,,,-99.99,,2013-09-14 22:42:00,
2013-09-14 15:53:00,86.0,38.0,-100.00,WNW,295,3.0,8.0,18,0.00,,,-99.99,,2013-09-14 22:53:00,
2013-09-14 16:23:00,86.0,39.0,-100.00,West,280,4.0,10.0,19,0.00,,,-99.99,,2013-09-14 23:23:00,
2013-09-14 16:42:00,85.0,43.0,-100.00,SW,233,13.0,20.0,23,0.00,,,-99.99,,2013-09-14 23:42:00,
2013-09-14 17:01:00,84.0,44.0,-100.00,SW,227,15.0,23.0,25,0.00,,,-99.99,,2013-09-15 00:01:00,
2013-09-14 17:12:00,85.0,43.0,-100.00,SW,224,13.0,20.0,23,0.00,,,-99.99,,2013-09-15 00:12:00,
2013-09-14 17:22:00,85.0,43.0,-100.00,SW,226,14.0,20.0,23,0.00,,,-99.99,,2013-09-15 00:22:00,
2013-09-14 17:42:00,84.0,44.0,-100.00,SW,227,15.0,23.0,25,0.00,,,-99.99,,2013-09-15 00:42:00,
2013-09-14 17:53:00,84.0,44.0,-100.00,SW,227,15.0,23.0,25,0.00,,,-99.99,,2013-09-15 00:53:00,
2013-09-14 18:22:00,82.0,44.0,-100.00,SW,236,16.0,25.0,26,0.00,,,-99.99,,2013-09-15 01:22:00,
2013-09-14 18:32:00,82.0,44.0,-100.00,SW,236,16.0,25.0,26,0.00,,,-99.99,,2013-09-15 01:32:00,
2013-09-14 19:22:00,78.0,45.0,-100.00,SW,233,11.0,17.0,31,0.00,,,-99.99,,2013-09-15 02:22:00,
2013-09-14 19:32:00,78.0,45.0,-100.00,SW,233,11.0,17.0,31,0.00,,,-99.99,,2013-09-15 02:32:00,
2013-09-14 19:52:00,77.0,45.0,-100.00,SW,236,11.0,15.0,32,0.00,,,-99.99,,2013-09-15 02:52:00,
2013-09-14 20:02:00,77.0,45.0,-100.00,SW,236,11.0,15.0,32,0.00,,,-99.99,,2013-09-15 03:02:00,
2013-09-14 20:22:00,77.0,44.0,-100.00,SW,236,12.0,17.0,31,0.00,,,-99.99,,2013-09-15 03:22:00,
2013-09-14 20:44:00,75.0,44.0,-100.00,SSE,154,7.0,12.0,33,0.00,,,-99.99,,2013-09-15 03:44:00,
2013-09-14 21:02:00,-999.0,-99.9,-100.00,South,171,9.0,13.0,-999,-99.99,,,-99.99,,2013-09-15 04:02:00,
2013-09-14 21:13:00,74.0,44.0,-100.00,South,171,9.0,13.0,34,0.00,,,-99.99,,2013-09-15 04:13:00,
2013-09-14 21:24:00,74.0,44.0,-100.00,South,188,9.0,14.0,34,0.00,,,-99.99,,2013-09-15 04:24:00,
2013-09-14 21:34:00,72.0,45.0,-100.00,SSE,150,9.0,11.0,38,0.00,,,-99.99,,2013-09-15 04:34:00,
2013-09-14 21:43:00,71.0,44.0,-100.00,SSW,206,7.0,10.0,38,0.00,,,-99.99,,2013-09-15 04:43:00,
2013-09-14 21:54:00,71.0,46.0,-100.00,SSW,196,8.0,12.0,41,0.00,,,-99.99,,2013-09-15 04:54:00,
2013-09-14 22:03:00,71.0,46.0,-100.00,SSW,196,8.0,12.0,41,0.00,,,-99.99,,2013-09-15 05:03:00,
2013-09-14 22:22:00,72.0,45.0,-100.00,SSE,150,9.0,11.0,38,0.00,,,-99.99,,2013-09-15 05:22:00,
2013-09-14 22:52:00,68.0,46.0,-100.00,ENE,69,3.0,6.0,46,0.00,,,-99.99,,2013-09-15 05:52:00,
2013-09-14 23:02:00,68.0,46.0,-100.00,ENE,69,3.0,6.0,46,0.00,,,-99.99,,2013-09-15 06:02:00,
2013-09-14 23:12:00,68.0,46.0,-100.00,ENE,69,3.0,6.0,46,0.00,,,-99.99,,2013-09-15 06:12:00,
2013-09-14 23:21:00,65.0,47.0,-100.00,North,-999,-999.0,-999.0,52,0.00,,,-99.99,,2013-09-15 06:21:00,
2013-09-14 23:42:00,64.0,47.0,-100.00,SE,144,1.0,4.0,54,0.00,,,-99.99,,2013-09-15 06:42:00,
2013-09-14 23:52:00,64.0,47.0,-100.00,SE,144,1.0,4.0,54,0.00,,,-99.99,,2013-09-15 06:52:00,